sensor_id;sensor_type;location;lat;lon;timestamp;pressure;altitude;pressure_sealevel;temperature;humidity
39443;BME280;25147;52.142;9.960;2023-04-29T00:01:13;100021.75;;;12.22;100.00
39443;BME280;25147;52.142;9.960;2023-04-29T00:03:40;100014.75;;;12.21;100.00
39443;BME280;25147;52.142;9.960;2023-04-29T00:06:08;99974.44;;;11.94;100.00
39443;BME280;25147;52.142;9.960;2023-04-29T00:08:35;99941.72;;;11.76;100.00
39443;BME280;25147;52.142;9.960;2023-04-29T00:11:02;100033.94;;;12.23;100.00
39443;BME280;25147;52.142;9.960;2023-04-29T00:13:29;99902.75;;;11.62;100.00
39443;BME280;25147;52.142;9.960;2023-04-29T00:15:56;100011.28;;;12.20;100.00
39443;BME280;25147;52.142;9.960;2023-04-29T00:18:23;99868.88;;;11.24;100.00
39443;BME280;25147;52.142;9.960;2023-04-29T00:20:50;100016.22;;;12.01;100.00
39443;BME280;25147;52.142;9.960;2023-04-29T00:23:18;99781.84;;;10.51;100.00
39443;BME280;25147;52.142;9.960;2023-04-29T00:25:45;100048.03;;;11.89;100.00
39443;BME280;25147;52.142;9.960;2023-04-29T00:28:11;99926.22;;;11.04;100.00
39443;BME280;25147;52.142;9.960;2023-04-29T00:30:39;100032.78;;;11.71;100.00
39443;BME280;25147;52.142;9.960;2023-04-29T00:33:06;100026.88;;;11.62;100.00
39443;BME280;25147;52.142;9.960;2023-04-29T00:35:32;100038.41;;;11.55;100.00
39443;BME280;25147;52.142;9.960;2023-04-29T00:37:59;99960.44;;;10.96;100.00
39443;BME280;25147;52.142;9.960;2023-04-29T00:40:27;100061.50;;;11.41;100.00
39443;BME280;25147;52.142;9.960;2023-04-29T00:42:54;99954.50;;;10.90;100.00
39443;BME280;25147;52.142;9.960;2023-04-29T00:45:21;99970.34;;;10.85;100.00
39443;BME280;25147;52.142;9.960;2023-04-29T00:47:48;100024.28;;;11.28;100.00
39443;BME280;25147;52.142;9.960;2023-04-29T00:50:15;99960.72;;;10.86;100.00
39443;BME280;25147;52.142;9.960;2023-04-29T00:52:43;99779.41;;;9.71;100.00
39443;BME280;25147;52.142;9.960;2023-04-29T00:55:10;99985.00;;;10.92;100.00
39443;BME280;25147;52.142;9.960;2023-04-29T00:57:40;99873.25;;;10.21;100.00
39443;BME280;25147;52.142;9.960;2023-04-29T01:00:08;100009.34;;;10.96;100.00
39443;BME280;25147;52.142;9.960;2023-04-29T01:02:35;100056.03;;;11.16;100.00
39443;BME280;25147;52.142;9.960;2023-04-29T01:05:03;100050.78;;;11.16;100.00
39443;BME280;25147;52.142;9.960;2023-04-29T01:07:33;99894.19;;;10.19;100.00
39443;BME280;25147;52.142;9.960;2023-04-29T01:10:05;100049.97;;;11.14;100.00
39443;BME280;25147;52.142;9.960;2023-04-29T01:12:42;99912.31;;;10.29;100.00
39443;BME280;25147;52.142;9.960;2023-04-29T01:15:17;100087.53;;;11.13;100.00
39443;BME280;25147;52.142;9.960;2023-04-29T01:17:49;100043.28;;;11.00;100.00
39443;BME280;25147;52.142;9.960;2023-04-29T01:20:18;99628.22;;;8.34;100.00
39443;BME280;25147;52.142;9.960;2023-04-29T01:22:46;99796.75;;;9.35;100.00
39443;BME280;25147;52.142;9.960;2023-04-29T01:25:14;99904.78;;;10.15;100.00
39443;BME280;25147;52.142;9.960;2023-04-29T01:27:49;100064.50;;;10.90;100.00
39443;BME280;25147;52.142;9.960;2023-04-29T01:30:27;100085.06;;;11.07;100.00
39443;BME280;25147;52.142;9.960;2023-04-29T01:33:00;99647.19;;;8.46;100.00
39443;BME280;25147;52.142;9.960;2023-04-29T01:35:39;99911.00;;;10.09;100.00
39443;BME280;25147;52.142;9.960;2023-04-29T01:38:16;100100.84;;;11.03;100.00
39443;BME280;25147;52.142;9.960;2023-04-29T01:40:53;100004.28;;;10.52;100.00
39443;BME280;25147;52.142;9.960;2023-04-29T01:43:27;100084.31;;;11.01;100.00
39443;BME280;25147;52.142;9.960;2023-04-29T01:45:56;99960.34;;;10.26;100.00
39443;BME280;25147;52.142;9.960;2023-04-29T01:48:23;100074.84;;;10.96;100.00
39443;BME280;25147;52.142;9.960;2023-04-29T01:50:50;99932.13;;;10.01;100.00
39443;BME280;25147;52.142;9.960;2023-04-29T01:53:17;99797.88;;;9.23;100.00
39443;BME280;25147;52.142;9.960;2023-04-29T01:55:44;99822.03;;;9.34;100.00
39443;BME280;25147;52.142;9.960;2023-04-29T01:58:12;99805.03;;;9.13;100.00
39443;BME280;25147;52.142;9.960;2023-04-29T02:00:39;100036.47;;;10.56;100.00
39443;BME280;25147;52.142;9.960;2023-04-29T02:03:07;100098.56;;;10.90;100.00
39443;BME280;25147;52.142;9.960;2023-04-29T02:05:33;100117.75;;;10.90;100.00
39443;BME280;25147;52.142;9.960;2023-04-29T02:08:01;100103.78;;;10.90;100.00
39443;BME280;25147;52.142;9.960;2023-04-29T02:10:28;100117.75;;;10.90;100.00
39443;BME280;25147;52.142;9.960;2023-04-29T02:12:55;99844.72;;;9.32;100.00
39443;BME280;25147;52.142;9.960;2023-04-29T02:15:25;99941.00;;;9.93;100.00
39443;BME280;25147;52.142;9.960;2023-04-29T02:17:52;99908.72;;;9.53;100.00
39443;BME280;25147;52.142;9.960;2023-04-29T02:20:18;100080.88;;;10.60;100.00
39443;BME280;25147;52.142;9.960;2023-04-29T02:22:45;100042.94;;;10.38;100.00
39443;BME280;25147;52.142;9.960;2023-04-29T02:25:12;100110.78;;;10.89;100.00
39443;BME280;25147;52.142;9.960;2023-04-29T02:27:39;100066.97;;;10.58;100.00
39443;BME280;25147;52.142;9.960;2023-04-29T02:30:06;100090.13;;;10.77;100.00
39443;BME280;25147;52.142;9.960;2023-04-29T02:32:35;100130.03;;;10.87;100.00
39443;BME280;25147;52.142;9.960;2023-04-29T02:35:05;99919.03;;;9.61;100.00
39443;BME280;25147;52.142;9.960;2023-04-29T02:37:33;100026.88;;;10.13;100.00
39443;BME280;25147;52.142;9.960;2023-04-29T02:40:00;99841.56;;;9.13;100.00
39443;BME280;25147;52.142;9.960;2023-04-29T02:42:28;100022.38;;;10.19;100.00
39443;BME280;25147;52.142;9.960;2023-04-29T02:44:54;99926.28;;;9.47;100.00
39443;BME280;25147;52.142;9.960;2023-04-29T02:47:21;100099.34;;;10.53;100.00
39443;BME280;25147;52.142;9.960;2023-04-29T02:49:49;99896.25;;;9.24;100.00
39443;BME280;25147;52.142;9.960;2023-04-29T02:52:16;100129.81;;;10.57;100.00
39443;BME280;25147;52.142;9.960;2023-04-29T02:54:43;100129.03;;;10.52;100.00
39443;BME280;25147;52.142;9.960;2023-04-29T02:57:10;100130.91;;;10.47;100.00
39443;BME280;25147;52.142;9.960;2023-04-29T02:59:37;100123.28;;;10.34;100.00
39443;BME280;25147;52.142;9.960;2023-04-29T03:02:03;100125.81;;;10.39;100.00
39443;BME280;25147;52.142;9.960;2023-04-29T03:04:30;100049.22;;;9.86;100.00
39443;BME280;25147;52.142;9.960;2023-04-29T03:06:58;99963.91;;;9.36;100.00
39443;BME280;25147;52.142;9.960;2023-04-29T03:09:25;100131.09;;;10.36;100.00
39443;BME280;25147;52.142;9.960;2023-04-29T03:11:52;100094.03;;;10.12;100.00
39443;BME280;25147;52.142;9.960;2023-04-29T03:14:19;100132.03;;;10.33;100.00
39443;BME280;25147;52.142;9.960;2023-04-29T03:16:46;100142.56;;;10.30;100.00
39443;BME280;25147;52.142;9.960;2023-04-29T03:19:12;100013.34;;;9.49;100.00
39443;BME280;25147;52.142;9.960;2023-04-29T03:21:39;99941.00;;;9.04;100.00
39443;BME280;25147;52.142;9.960;2023-04-29T03:24:07;100133.38;;;10.08;100.00
39443;BME280;25147;52.142;9.960;2023-04-29T03:26:34;99698.34;;;7.50;100.00
39443;BME280;25147;52.142;9.960;2023-04-29T03:29:01;100169.78;;;10.18;100.00
39443;BME280;25147;52.142;9.960;2023-04-29T03:31:28;100156.75;;;10.15;100.00
39443;BME280;25147;52.142;9.960;2023-04-29T03:33:55;100145.44;;;10.13;100.00
39443;BME280;25147;52.142;9.960;2023-04-29T03:36:21;100032.75;;;9.34;100.00
39443;BME280;25147;52.142;9.960;2023-04-29T03:38:48;99989.56;;;9.13;100.00
39443;BME280;25147;52.142;9.960;2023-04-29T03:41:16;100113.00;;;9.77;100.00
39443;BME280;25147;52.142;9.960;2023-04-29T03:43:43;99745.28;;;7.47;100.00
39443;BME280;25147;52.142;9.960;2023-04-29T03:46:10;100013.09;;;9.11;100.00
39443;BME280;25147;52.142;9.960;2023-04-29T03:48:37;99998.56;;;8.95;100.00
39443;BME280;25147;52.142;9.960;2023-04-29T03:51:04;99743.56;;;7.44;100.00
39443;BME280;25147;52.142;9.960;2023-04-29T03:53:31;100079.81;;;9.31;100.00
39443;BME280;25147;52.142;9.960;2023-04-29T03:55:58;99944.47;;;8.50;100.00
39443;BME280;25147;52.142;9.960;2023-04-29T03:58:26;100154.06;;;9.70;100.00
39443;BME280;25147;52.142;9.960;2023-04-29T04:00:53;99954.09;;;8.47;100.00
39443;BME280;25147;52.142;9.960;2023-04-29T04:03:20;100062.72;;;9.10;100.00
39443;BME280;25147;52.142;9.960;2023-04-29T04:05:50;100151.22;;;9.31;100.00
39443;BME280;25147;52.142;9.960;2023-04-29T04:08:16;100195.03;;;9.70;100.00
39443;BME280;25147;52.142;9.960;2023-04-29T04:10:43;100202.91;;;9.68;100.00
39443;BME280;25147;52.142;9.960;2023-04-29T04:13:10;100200.38;;;9.63;100.00
39443;BME280;25147;52.142;9.960;2023-04-29T04:15:38;99820.16;;;7.30;100.00
39443;BME280;25147;52.142;9.960;2023-04-29T04:18:05;100146.34;;;9.08;100.00
39443;BME280;25147;52.142;9.960;2023-04-29T04:20:35;100240.50;;;9.59;100.00
39443;BME280;25147;52.142;9.960;2023-04-29T04:23:02;99919.34;;;7.81;100.00
39443;BME280;25147;52.142;9.960;2023-04-29T04:25:29;99923.00;;;7.68;100.00
39443;BME280;25147;52.142;9.960;2023-04-29T04:27:56;99888.47;;;7.50;100.00
39443;BME280;25147;52.142;9.960;2023-04-29T04:30:25;100244.03;;;9.57;100.00
39443;BME280;25147;52.142;9.960;2023-04-29T04:32:53;99801.63;;;6.83;100.00
39443;BME280;25147;52.142;9.960;2023-04-29T04:35:20;100249.28;;;9.54;100.00
39443;BME280;25147;52.142;9.960;2023-04-29T04:37:47;99893.97;;;7.29;100.00
39443;BME280;25147;52.142;9.960;2023-04-29T04:40:14;100084.44;;;8.54;100.00
39443;BME280;25147;52.142;9.960;2023-04-29T04:42:43;100018.06;;;8.07;100.00
39443;BME280;25147;52.142;9.960;2023-04-29T04:45:10;100155.41;;;8.81;100.00
39443;BME280;25147;52.142;9.960;2023-04-29T04:47:39;99936.13;;;7.57;100.00
39443;BME280;25147;52.142;9.960;2023-04-29T04:50:08;100191.75;;;8.96;100.00
39443;BME280;25147;52.142;9.960;2023-04-29T04:52:35;100148.72;;;8.60;100.00
39443;BME280;25147;52.142;9.960;2023-04-29T04:55:02;100279.91;;;9.44;100.00
39443;BME280;25147;52.142;9.960;2023-04-29T04:57:28;99962.25;;;7.52;100.00
39443;BME280;25147;52.142;9.960;2023-04-29T04:59:55;100267.94;;;9.29;100.00
39443;BME280;25147;52.142;9.960;2023-04-29T05:02:22;100296.50;;;9.40;100.00
39443;BME280;25147;52.142;9.960;2023-04-29T05:04:49;100314.84;;;9.38;100.00
39443;BME280;25147;52.142;9.960;2023-04-29T05:07:17;100316.56;;;9.38;100.00
39443;BME280;25147;52.142;9.960;2023-04-29T05:09:44;100291.34;;;9.37;100.00
39443;BME280;25147;52.142;9.960;2023-04-29T05:12:10;100174.91;;;8.51;100.00
39443;BME280;25147;52.142;9.960;2023-04-29T05:14:37;100314.00;;;9.36;100.00
39443;BME280;25147;52.142;9.960;2023-04-29T05:17:04;100296.72;;;9.24;100.00
39443;BME280;25147;52.142;9.960;2023-04-29T05:19:31;100321.03;;;9.31;100.00
39443;BME280;25147;52.142;9.960;2023-04-29T05:21:57;100280.38;;;9.10;100.00
39443;BME280;25147;52.142;9.960;2023-04-29T05:24:26;100341.91;;;9.33;100.00
39443;BME280;25147;52.142;9.960;2023-04-29T05:26:54;100344.53;;;9.31;100.00
39443;BME280;25147;52.142;9.960;2023-04-29T05:29:21;100342.78;;;9.32;100.00
39443;BME280;25147;52.142;9.960;2023-04-29T05:31:47;100342.78;;;9.32;100.00
39443;BME280;25147;52.142;9.960;2023-04-29T05:34:14;100211.34;;;8.61;100.00
39443;BME280;25147;52.142;9.960;2023-04-29T05:36:41;100325.38;;;9.31;100.00
39443;BME280;25147;52.142;9.960;2023-04-29T05:39:08;100345.44;;;9.29;100.00
39443;BME280;25147;52.142;9.960;2023-04-29T05:41:36;100338.47;;;9.28;100.00
39443;BME280;25147;52.142;9.960;2023-04-29T05:44:03;100208.03;;;8.44;100.00
39443;BME280;25147;52.142;9.960;2023-04-29T05:46:30;100336.75;;;9.28;100.00
39443;BME280;25147;52.142;9.960;2023-04-29T05:48:56;100364.59;;;9.28;100.00
39443;BME280;25147;52.142;9.960;2023-04-29T05:51:23;100284.06;;;8.94;100.00
39443;BME280;25147;52.142;9.960;2023-04-29T05:53:50;100345.44;;;9.27;100.00
39443;BME280;25147;52.142;9.960;2023-04-29T05:56:17;100272.06;;;8.76;100.00
39443;BME280;25147;52.142;9.960;2023-04-29T05:58:46;99930.19;;;6.57;100.00
39443;BME280;25147;52.142;9.960;2023-04-29T06:01:12;100070.84;;;7.46;100.00
39443;BME280;25147;52.142;9.960;2023-04-29T06:03:39;100279.97;;;8.68;100.00
39443;BME280;25147;52.142;9.960;2023-04-29T06:06:07;100411.69;;;9.21;100.00
39443;BME280;25147;52.142;9.960;2023-04-29T06:08:34;100365.00;;;8.89;100.00
39443;BME280;25147;52.142;9.960;2023-04-29T06:11:01;100202.25;;;8.14;100.00
39443;BME280;25147;52.142;9.960;2023-04-29T06:13:30;100397.78;;;9.18;100.00
39443;BME280;25147;52.142;9.960;2023-04-29T06:15:59;100383.84;;;9.20;100.00
39443;BME280;25147;52.142;9.960;2023-04-29T06:18:25;100112.53;;;7.42;100.00
39443;BME280;25147;52.142;9.960;2023-04-29T06:20:53;100326.13;;;8.64;100.00
39443;BME280;25147;52.142;9.960;2023-04-29T06:23:19;100397.84;;;9.15;100.00
39443;BME280;25147;52.142;9.960;2023-04-29T06:25:46;100244.78;;;8.19;100.00
39443;BME280;25147;52.142;9.960;2023-04-29T06:28:13;100253.44;;;8.20;100.00
39443;BME280;25147;52.142;9.960;2023-04-29T06:30:40;100396.28;;;8.98;100.00
39443;BME280;25147;52.142;9.960;2023-04-29T06:33:08;100335.69;;;8.66;100.00
39443;BME280;25147;52.142;9.960;2023-04-29T06:35:38;100422.22;;;9.14;100.00
39443;BME280;25147;52.142;9.960;2023-04-29T06:38:05;100389.41;;;8.90;100.00
39443;BME280;25147;52.142;9.960;2023-04-29T06:40:33;100429.25;;;9.09;100.00
39443;BME280;25147;52.142;9.960;2023-04-29T06:43:00;100405.94;;;8.89;100.00
39443;BME280;25147;52.142;9.960;2023-04-29T06:45:29;100443.19;;;9.06;100.00
39443;BME280;25147;52.142;9.960;2023-04-29T06:47:55;100373.06;;;8.68;100.00
39443;BME280;25147;52.142;9.960;2023-04-29T06:50:23;100474.56;;;9.03;100.00
39443;BME280;25147;52.142;9.960;2023-04-29T06:52:50;100391.28;;;8.74;100.00
39443;BME280;25147;52.142;9.960;2023-04-29T06:55:17;100499.75;;;9.07;100.00
39443;BME280;25147;52.142;9.960;2023-04-29T06:57:44;100336.00;;;8.26;100.00
39443;BME280;25147;52.142;9.960;2023-04-29T07:00:12;100472.00;;;8.98;100.00
39443;BME280;25147;52.142;9.960;2023-04-29T07:02:40;100482.50;;;8.89;100.00
39443;BME280;25147;52.142;9.960;2023-04-29T07:05:08;100467.84;;;8.73;100.00
39443;BME280;25147;52.142;9.960;2023-04-29T07:07:36;100332.81;;;7.90;100.00
39443;BME280;25147;52.142;9.960;2023-04-29T07:10:04;100494.72;;;8.86;100.00
39443;BME280;25147;52.142;9.960;2023-04-29T07:12:31;100443.69;;;8.48;100.00
39443;BME280;25147;52.142;9.960;2023-04-29T07:14:58;100493.84;;;8.85;100.00
39443;BME280;25147;52.142;9.960;2023-04-29T07:17:28;100284.31;;;7.61;100.00
39443;BME280;25147;52.142;9.960;2023-04-29T07:19:55;100525.06;;;8.97;100.00
39443;BME280;25147;52.142;9.960;2023-04-29T07:22:22;100555.53;;;9.00;100.00
39443;BME280;25147;52.142;9.960;2023-04-29T07:24:53;100527.69;;;9.00;100.00
39443;BME280;25147;52.142;9.960;2023-04-29T07:27:20;100563.38;;;9.00;100.00
39443;BME280;25147;52.142;9.960;2023-04-29T07:29:46;100539.00;;;8.99;100.00
39443;BME280;25147;52.142;9.960;2023-04-29T07:32:14;100544.25;;;8.98;100.00
39443;BME280;25147;52.142;9.960;2023-04-29T07:34:41;100512.25;;;8.71;100.00
39443;BME280;25147;52.142;9.960;2023-04-29T07:37:08;100559.00;;;9.00;100.00
39443;BME280;25147;52.142;9.960;2023-04-29T07:39:35;100138.25;;;6.53;100.00
39443;BME280;25147;52.142;9.960;2023-04-29T07:42:03;100255.09;;;7.08;100.00
39443;BME280;25147;52.142;9.960;2023-04-29T07:44:30;100589.41;;;9.08;100.00
39443;BME280;25147;52.142;9.960;2023-04-29T07:46:57;100552.03;;;8.99;100.00
39443;BME280;25147;52.142;9.960;2023-04-29T07:49:24;100594.56;;;9.18;100.00
39443;BME280;25147;52.142;9.960;2023-04-29T07:51:51;100573.63;;;9.23;100.00
39443;BME280;25147;52.142;9.960;2023-04-29T07:54:18;100577.94;;;9.29;100.00
39443;BME280;25147;52.142;9.960;2023-04-29T07:56:47;100499.97;;;8.86;100.00
39443;BME280;25147;52.142;9.960;2023-04-29T07:59:15;100137.28;;;6.75;100.00
39443;BME280;25147;52.142;9.960;2023-04-29T08:01:42;100377.69;;;8.33;100.00
39443;BME280;25147;52.142;9.960;2023-04-29T08:04:09;100195.09;;;7.28;100.00
39443;BME280;25147;52.142;9.960;2023-04-29T08:06:40;100253.00;;;7.69;100.00
39443;BME280;25147;52.142;9.960;2023-04-29T08:09:07;100444.19;;;8.93;100.00
39443;BME280;25147;52.142;9.960;2023-04-29T08:11:35;100613.09;;;9.91;100.00
39443;BME280;25147;52.142;9.960;2023-04-29T08:14:05;100575.59;;;9.91;100.00
39443;BME280;25147;52.142;9.960;2023-04-29T08:16:33;100606.69;;;10.15;100.00
39443;BME280;25147;52.142;9.960;2023-04-29T08:19:00;100599.56;;;10.33;100.00
39443;BME280;25147;52.142;9.960;2023-04-29T08:21:27;100570.81;;;10.28;100.00
39443;BME280;25147;52.142;9.960;2023-04-29T08:23:54;100584.63;;;10.41;100.00
39443;BME280;25147;52.142;9.960;2023-04-29T08:26:21;100617.66;;;10.50;100.00
39443;BME280;25147;52.142;9.960;2023-04-29T08:28:48;100613.28;;;10.52;100.00
39443;BME280;25147;52.142;9.960;2023-04-29T08:31:16;100443.53;;;9.57;100.00
39443;BME280;25147;52.142;9.960;2023-04-29T08:33:47;100452.09;;;9.69;100.00
39443;BME280;25147;52.142;9.960;2023-04-29T08:36:15;100198.03;;;7.99;100.00
39443;BME280;25147;52.142;9.960;2023-04-29T08:38:42;100617.41;;;10.70;100.00
39443;BME280;25147;52.142;9.960;2023-04-29T08:41:10;100633.97;;;10.72;100.00
39443;BME280;25147;52.142;9.960;2023-04-29T08:43:39;100495.38;;;9.94;100.00
39443;BME280;25147;52.142;9.960;2023-04-29T08:46:06;100180.59;;;8.04;99.07
39443;BME280;25147;52.142;9.960;2023-04-29T08:48:35;100530.81;;;10.17;99.64
39443;BME280;25147;52.142;9.960;2023-04-29T08:51:06;100503.91;;;10.07;98.83
39443;BME280;25147;52.142;9.960;2023-04-29T08:53:33;100645.81;;;10.99;96.49
39443;BME280;25147;52.142;9.960;2023-04-29T08:56:03;100192.41;;;8.39;95.09
39443;BME280;25147;52.142;9.960;2023-04-29T08:58:35;100473.44;;;10.03;95.82
39443;BME280;25147;52.142;9.960;2023-04-29T09:01:07;100502.75;;;10.33;95.47
39443;BME280;25147;52.142;9.960;2023-04-29T09:03:43;100493.78;;;10.51;91.65
39443;BME280;25147;52.142;9.960;2023-04-29T09:06:14;100403.75;;;9.99;89.05
39443;BME280;25147;52.142;9.960;2023-04-29T09:08:41;100664.09;;;11.59;89.00
39443;BME280;25147;52.142;9.960;2023-04-29T09:11:08;100453.66;;;10.50;88.29
39443;BME280;25147;52.142;9.960;2023-04-29T09:13:36;100656.84;;;11.77;86.79
39443;BME280;25147;52.142;9.960;2023-04-29T09:16:09;100619.31;;;11.72;85.50
39443;BME280;25147;52.142;9.960;2023-04-29T09:18:44;100391.69;;;10.51;84.59
39443;BME280;25147;52.142;9.960;2023-04-29T09:21:14;100665.06;;;12.07;82.95
39443;BME280;25147;52.142;9.960;2023-04-29T09:23:41;100613.34;;;11.62;83.04
39443;BME280;25147;52.142;9.960;2023-04-29T09:26:08;100671.09;;;12.12;82.46
39443;BME280;25147;52.142;9.960;2023-04-29T09:28:35;100707.78;;;12.15;82.94
39443;BME280;25147;52.142;9.960;2023-04-29T09:31:01;100444.50;;;10.74;82.15
39443;BME280;25147;52.142;9.960;2023-04-29T09:33:31;100542.28;;;11.29;81.68
39443;BME280;25147;52.142;9.960;2023-04-29T09:35:58;100448.78;;;10.81;81.22
39443;BME280;25147;52.142;9.960;2023-04-29T09:38:35;100409.06;;;10.55;80.82
39443;BME280;25147;52.142;9.960;2023-04-29T09:41:08;100692.84;;;12.18;81.02
39443;BME280;25147;52.142;9.960;2023-04-29T09:43:36;100690.09;;;12.24;81.69
39443;BME280;25147;52.142;9.960;2023-04-29T09:46:03;100416.63;;;10.72;80.13
39443;BME280;25147;52.142;9.960;2023-04-29T09:48:30;100660.16;;;12.35;79.56
39443;BME280;25147;52.142;9.960;2023-04-29T09:51:00;100691.31;;;12.53;78.69
39443;BME280;25147;52.142;9.960;2023-04-29T09:53:29;100622.06;;;12.15;79.40
39443;BME280;25147;52.142;9.960;2023-04-29T09:55:59;100518.13;;;11.60;79.54
39443;BME280;25147;52.142;9.960;2023-04-29T09:58:28;100409.72;;;11.17;78.49
39443;BME280;25147;52.142;9.960;2023-04-29T10:00:58;100681.00;;;12.86;78.30
39443;BME280;25147;52.142;9.960;2023-04-29T10:03:31;100465.50;;;11.69;78.15
39443;BME280;25147;52.142;9.960;2023-04-29T10:05:59;100685.78;;;13.08;76.82
39443;BME280;25147;52.142;9.960;2023-04-29T10:08:26;100618.25;;;12.72;76.11
39443;BME280;25147;52.142;9.960;2023-04-29T10:10:55;100716.94;;;13.24;74.91
39443;BME280;25147;52.142;9.960;2023-04-29T10:13:26;100660.38;;;13.07;73.88
39443;BME280;25147;52.142;9.960;2023-04-29T10:15:59;100393.28;;;11.54;72.91
39443;BME280;25147;52.142;9.960;2023-04-29T10:18:34;100690.63;;;13.26;73.08
39443;BME280;25147;52.142;9.960;2023-04-29T10:21:02;100524.38;;;12.01;72.90
39443;BME280;25147;52.142;9.960;2023-04-29T10:23:32;100577.06;;;12.34;71.82
39443;BME280;25147;52.142;9.960;2023-04-29T10:26:00;100693.50;;;13.17;70.56
39443;BME280;25147;52.142;9.960;2023-04-29T10:28:31;100650.56;;;12.76;71.37
39443;BME280;25147;52.142;9.960;2023-04-29T10:31:00;100627.97;;;12.69;72.04
39443;BME280;25147;52.142;9.960;2023-04-29T10:33:30;100551.09;;;12.20;72.59
39443;BME280;25147;52.142;9.960;2023-04-29T10:35:58;100562.13;;;12.36;72.38
39443;BME280;25147;52.142;9.960;2023-04-29T10:38:28;100726.84;;;13.15;73.10
39443;BME280;25147;52.142;9.960;2023-04-29T10:40:57;100758.38;;;13.15;74.02
39443;BME280;25147;52.142;9.960;2023-04-29T10:43:26;100472.47;;;11.70;73.20
39443;BME280;25147;52.142;9.960;2023-04-29T10:46:18;100282.44;;;10.60;73.02
39443;BME280;25147;52.142;9.960;2023-04-29T10:48:46;100710.16;;;13.14;74.36
39443;BME280;25147;52.142;9.960;2023-04-29T10:51:27;100632.44;;;12.63;74.61
39443;BME280;25147;52.142;9.960;2023-04-29T10:53:58;100452.66;;;11.55;74.94
39443;BME280;25147;52.142;9.960;2023-04-29T10:56:39;100717.22;;;13.12;73.95
39443;BME280;25147;52.142;9.960;2023-04-29T10:59:11;100728.03;;;12.98;72.25
39443;BME280;25147;52.142;9.960;2023-04-29T11:01:45;100313.03;;;10.04;72.90
39443;BME280;25147;52.142;9.960;2023-04-29T11:04:13;100568.78;;;11.62;74.07
39443;BME280;25147;52.142;9.960;2023-04-29T11:06:41;100626.47;;;11.62;74.69
39443;BME280;25147;52.142;9.960;2023-04-29T11:09:14;100729.34;;;12.32;75.55
39443;BME280;25147;52.142;9.960;2023-04-29T11:11:58;100743.22;;;12.39;76.19
39443;BME280;25147;52.142;9.960;2023-04-29T11:14:30;100687.56;;;12.21;75.03
39443;BME280;25147;52.142;9.960;2023-04-29T11:17:01;100466.91;;;10.92;74.58
39443;BME280;25147;52.142;9.960;2023-04-29T11:19:32;100277.44;;;9.95;73.91
39443;BME280;25147;52.142;9.960;2023-04-29T11:22:08;100447.31;;;11.13;72.42
39443;BME280;25147;52.142;9.960;2023-04-29T11:24:49;100436.81;;;11.15;72.47
39443;BME280;25147;52.142;9.960;2023-04-29T11:27:22;100732.31;;;13.02;70.59
39443;BME280;25147;52.142;9.960;2023-04-29T11:29:55;100216.38;;;9.98;70.15
39443;BME280;25147;52.142;9.960;2023-04-29T11:32:25;100600.47;;;12.43;70.21
39443;BME280;25147;52.142;9.960;2023-04-29T11:34:53;100476.59;;;11.83;68.17
39443;BME280;25147;52.142;9.960;2023-04-29T11:37:22;100727.69;;;13.15;68.73
39443;BME280;25147;52.142;9.960;2023-04-29T11:39:50;100313.22;;;10.94;68.91
39443;BME280;25147;52.142;9.960;2023-04-29T11:42:21;100757.03;;;13.75;68.75
39443;BME280;25147;52.142;9.960;2023-04-29T11:44:52;100473.75;;;12.35;68.06
39443;BME280;25147;52.142;9.960;2023-04-29T11:47:29;100601.41;;;13.18;67.30
39443;BME280;25147;52.142;9.960;2023-04-29T11:50:03;100745.78;;;14.04;67.10
39443;BME280;25147;52.142;9.960;2023-04-29T11:52:31;100654.97;;;13.14;67.40
39443;BME280;25147;52.142;9.960;2023-04-29T11:54:59;100674.50;;;13.02;68.85
39443;BME280;25147;52.142;9.960;2023-04-29T11:57:26;100630.00;;;12.56;67.12
39443;BME280;25147;52.142;9.960;2023-04-29T11:59:53;100775.81;;;13.19;66.68
39443;BME280;25147;52.142;9.960;2023-04-29T12:02:21;100775.16;;;13.08;66.87
39443;BME280;25147;52.142;9.960;2023-04-29T12:04:50;100649.88;;;12.24;66.35
39443;BME280;25147;52.142;9.960;2023-04-29T12:07:18;100617.94;;;12.02;66.74
39443;BME280;25147;52.142;9.960;2023-04-29T12:09:45;100710.97;;;12.76;66.78
39443;BME280;25147;52.142;9.960;2023-04-29T12:12:13;100604.78;;;12.03;66.55
39443;BME280;25147;52.142;9.960;2023-04-29T12:14:41;100666.16;;;12.41;67.16
39443;BME280;25147;52.142;9.960;2023-04-29T12:17:11;100479.13;;;11.43;67.35
39443;BME280;25147;52.142;9.960;2023-04-29T12:19:39;100689.25;;;12.68;66.33
39443;BME280;25147;52.142;9.960;2023-04-29T12:22:08;100671.69;;;12.71;66.46
39443;BME280;25147;52.142;9.960;2023-04-29T12:24:36;100520.25;;;11.86;64.65
39443;BME280;25147;52.142;9.960;2023-04-29T12:27:08;100757.91;;;13.38;64.54
39443;BME280;25147;52.142;9.960;2023-04-29T12:29:35;100570.84;;;12.38;64.02
39443;BME280;25147;52.142;9.960;2023-04-29T12:32:02;100633.22;;;12.69;63.15
39443;BME280;25147;52.142;9.960;2023-04-29T12:34:30;100750.38;;;13.60;62.68
39443;BME280;25147;52.142;9.960;2023-04-29T12:36:58;100767.69;;;13.70;63.13
39443;BME280;25147;52.142;9.960;2023-04-29T12:39:27;100588.69;;;12.62;63.14
39443;BME280;25147;52.142;9.960;2023-04-29T12:41:57;100515.50;;;12.45;61.98
39443;BME280;25147;52.142;9.960;2023-04-29T12:44:24;100513.09;;;12.38;61.35
39443;BME280;25147;52.142;9.960;2023-04-29T12:46:51;100674.78;;;13.31;59.50
39443;BME280;25147;52.142;9.960;2023-04-29T12:49:23;100767.47;;;13.78;60.31
39443;BME280;25147;52.142;9.960;2023-04-29T12:51:50;100626.84;;;12.80;60.64
39443;BME280;25147;52.142;9.960;2023-04-29T12:54:17;100570.50;;;12.53;60.43
39443;BME280;25147;52.142;9.960;2023-04-29T12:56:49;100798.19;;;13.77;60.26